sensor_id;sensor_type;location;lat;lon;timestamp;temperature;humidity
81218;DHT22;70689;52.494;13.420;2023-10-09T00:02:11;14.00;55.40
81218;DHT22;70689;52.494;13.420;2023-10-09T00:04:43;13.90;55.10
81218;DHT22;70689;52.494;13.420;2023-10-09T00:07:11;13.80;55.70
81218;DHT22;70689;52.494;13.420;2023-10-09T00:09:38;13.70;56.40
81218;DHT22;70689;52.494;13.420;2023-10-09T00:12:18;13.80;56.70
81218;DHT22;70689;52.494;13.420;2023-10-09T00:14:54;13.70;56.70
81218;DHT22;70689;52.494;13.420;2023-10-09T00:17:21;13.80;56.70
81218;DHT22;70689;52.494;13.420;2023-10-09T00:19:48;13.80;57.30
81218;DHT22;70689;52.494;13.420;2023-10-09T00:22:15;13.80;56.80
81218;DHT22;70689;52.494;13.420;2023-10-09T00:25:03;13.70;57.30
81218;DHT22;70689;52.494;13.420;2023-10-09T00:27:41;13.70;58.10
81218;DHT22;70689;52.494;13.420;2023-10-09T00:30:09;13.60;58.40
81218;DHT22;70689;52.494;13.420;2023-10-09T00:32:36;13.50;59.80
81218;DHT22;70689;52.494;13.420;2023-10-09T00:35:03;13.50;59.90
81218;DHT22;70689;52.494;13.420;2023-10-09T00:37:48;13.40;60.00
81218;DHT22;70689;52.494;13.420;2023-10-09T00:40:16;13.20;61.00
81218;DHT22;70689;52.494;13.420;2023-10-09T00:42:47;13.10;62.10
81218;DHT22;70689;52.494;13.420;2023-10-09T00:45:14;13.00;62.80
81218;DHT22;70689;52.494;13.420;2023-10-09T00:47:51;13.00;62.50
81218;DHT22;70689;52.494;13.420;2023-10-09T00:50:17;13.00;63.00
81218;DHT22;70689;52.494;13.420;2023-10-09T00:52:56;12.90;63.60
81218;DHT22;70689;52.494;13.420;2023-10-09T00:55:33;13.10;63.80
81218;DHT22;70689;52.494;13.420;2023-10-09T00:58:09;13.00;65.20
81218;DHT22;70689;52.494;13.420;2023-10-09T01:00:40;12.90;65.70
81218;DHT22;70689;52.494;13.420;2023-10-09T01:03:09;12.90;66.70
81218;DHT22;70689;52.494;13.420;2023-10-09T01:05:47;12.90;65.60
81218;DHT22;70689;52.494;13.420;2023-10-09T01:08:41;12.90;65.50
81218;DHT22;70689;52.494;13.420;2023-10-09T01:11:11;12.80;66.10
81218;DHT22;70689;52.494;13.420;2023-10-09T01:13:44;12.70;66.40
81218;DHT22;70689;52.494;13.420;2023-10-09T01:16:17;12.70;67.40
81218;DHT22;70689;52.494;13.420;2023-10-09T01:18:47;12.70;67.50
81218;DHT22;70689;52.494;13.420;2023-10-09T01:21:20;12.70;67.60
81218;DHT22;70689;52.494;13.420;2023-10-09T01:23:53;12.90;67.00
81218;DHT22;70689;52.494;13.420;2023-10-09T01:26:38;12.80;66.30
81218;DHT22;70689;52.494;13.420;2023-10-09T01:29:17;12.70;66.70
81218;DHT22;70689;52.494;13.420;2023-10-09T01:31:51;12.70;67.20
81218;DHT22;70689;52.494;13.420;2023-10-09T01:34:27;12.80;67.00
81218;DHT22;70689;52.494;13.420;2023-10-09T01:37:11;12.80;66.80
81218;DHT22;70689;52.494;13.420;2023-10-09T01:39:40;12.80;66.70
81218;DHT22;70689;52.494;13.420;2023-10-09T01:42:08;12.70;67.30
81218;DHT22;70689;52.494;13.420;2023-10-09T01:44:34;12.80;66.00
81218;DHT22;70689;52.494;13.420;2023-10-09T01:47:03;12.90;66.10
81218;DHT22;70689;52.494;13.420;2023-10-09T01:49:40;12.90;65.50
81218;DHT22;70689;52.494;13.420;2023-10-09T01:52:10;12.80;65.40
81218;DHT22;70689;52.494;13.420;2023-10-09T01:54:42;12.80;66.30
81218;DHT22;70689;52.494;13.420;2023-10-09T01:57:13;12.70;66.90
81218;DHT22;70689;52.494;13.420;2023-10-09T01:59:43;12.70;68.00
81218;DHT22;70689;52.494;13.420;2023-10-09T02:02:18;12.70;68.10
81218;DHT22;70689;52.494;13.420;2023-10-09T02:05:04;12.70;68.20
81218;DHT22;70689;52.494;13.420;2023-10-09T02:07:51;12.80;67.70
81218;DHT22;70689;52.494;13.420;2023-10-09T02:10:18;12.80;67.70
81218;DHT22;70689;52.494;13.420;2023-10-09T02:12:51;12.90;67.50
81218;DHT22;70689;52.494;13.420;2023-10-09T02:15:27;12.90;66.70
81218;DHT22;70689;52.494;13.420;2023-10-09T02:18:15;13.00;67.30
81218;DHT22;70689;52.494;13.420;2023-10-09T02:23:21;12.80;67.00
81218;DHT22;70689;52.494;13.420;2023-10-09T02:25:58;12.90;67.40
81218;DHT22;70689;52.494;13.420;2023-10-09T02:28:27;12.80;67.60
81218;DHT22;70689;52.494;13.420;2023-10-09T02:30:58;12.80;68.00
81218;DHT22;70689;52.494;13.420;2023-10-09T02:33:26;12.70;68.40
81218;DHT22;70689;52.494;13.420;2023-10-09T02:35:56;12.70;68.90
81218;DHT22;70689;52.494;13.420;2023-10-09T02:38:25;12.70;68.20
81218;DHT22;70689;52.494;13.420;2023-10-09T02:40:52;12.70;68.30
81218;DHT22;70689;52.494;13.420;2023-10-09T02:43:31;12.80;68.80
81218;DHT22;70689;52.494;13.420;2023-10-09T02:46:06;12.80;68.40
81218;DHT22;70689;52.494;13.420;2023-10-09T02:48:39;12.60;68.50
81218;DHT22;70689;52.494;13.420;2023-10-09T02:51:11;12.50;68.90
81218;DHT22;70689;52.494;13.420;2023-10-09T02:53:46;12.50;69.50
81218;DHT22;70689;52.494;13.420;2023-10-09T02:56:15;12.50;70.30
81218;DHT22;70689;52.494;13.420;2023-10-09T02:58:43;12.50;70.40
81218;DHT22;70689;52.494;13.420;2023-10-09T03:01:10;12.40;71.20
81218;DHT22;70689;52.494;13.420;2023-10-09T03:03:39;12.30;71.40
81218;DHT22;70689;52.494;13.420;2023-10-09T03:06:06;12.30;71.30
81218;DHT22;70689;52.494;13.420;2023-10-09T03:08:37;12.30;72.80
81218;DHT22;70689;52.494;13.420;2023-10-09T03:11:03;12.30;72.20
81218;DHT22;70689;52.494;13.420;2023-10-09T03:13:31;12.30;71.90
81218;DHT22;70689;52.494;13.420;2023-10-09T03:15:58;12.30;72.10
81218;DHT22;70689;52.494;13.420;2023-10-09T03:18:24;12.20;72.40
81218;DHT22;70689;52.494;13.420;2023-10-09T03:20:50;12.20;71.40
81218;DHT22;70689;52.494;13.420;2023-10-09T03:23:16;12.20;71.40
81218;DHT22;70689;52.494;13.420;2023-10-09T03:25:41;12.00;72.20
81218;DHT22;70689;52.494;13.420;2023-10-09T03:28:11;12.00;72.70
81218;DHT22;70689;52.494;13.420;2023-10-09T03:30:37;12.10;72.70
81218;DHT22;70689;52.494;13.420;2023-10-09T03:33:05;12.10;73.20
81218;DHT22;70689;52.494;13.420;2023-10-09T03:35:32;12.10;73.80
81218;DHT22;70689;52.494;13.420;2023-10-09T03:38:00;12.20;73.50
81218;DHT22;70689;52.494;13.420;2023-10-09T03:40:31;12.20;72.90
81218;DHT22;70689;52.494;13.420;2023-10-09T03:42:57;12.20;73.60
81218;DHT22;70689;52.494;13.420;2023-10-09T03:45:23;12.30;73.20
81218;DHT22;70689;52.494;13.420;2023-10-09T03:47:52;12.30;71.90
81218;DHT22;70689;52.494;13.420;2023-10-09T03:50:23;12.30;72.90
81218;DHT22;70689;52.494;13.420;2023-10-09T03:53:02;12.30;72.80
81218;DHT22;70689;52.494;13.420;2023-10-09T03:55:29;12.20;72.80
81218;DHT22;70689;52.494;13.420;2023-10-09T03:57:56;12.00;73.00
81218;DHT22;70689;52.494;13.420;2023-10-09T04:00:23;12.10;73.50
81218;DHT22;70689;52.494;13.420;2023-10-09T04:02:54;12.10;73.90
81218;DHT22;70689;52.494;13.420;2023-10-09T04:05:20;12.00;74.20
81218;DHT22;70689;52.494;13.420;2023-10-09T04:07:45;12.10;73.80
81218;DHT22;70689;52.494;13.420;2023-10-09T04:10:11;12.00;73.80
81218;DHT22;70689;52.494;13.420;2023-10-09T04:12:59;12.20;73.30
81218;DHT22;70689;52.494;13.420;2023-10-09T04:15:26;12.00;72.70
81218;DHT22;70689;52.494;13.420;2023-10-09T04:17:56;11.70;74.00
81218;DHT22;70689;52.494;13.420;2023-10-09T04:20:22;11.70;74.70
81218;DHT22;70689;52.494;13.420;2023-10-09T04:22:47;11.50;75.60
81218;DHT22;70689;52.494;13.420;2023-10-09T04:25:17;11.60;76.80
81218;DHT22;70689;52.494;13.420;2023-10-09T04:27:52;11.50;76.30
81218;DHT22;70689;52.494;13.420;2023-10-09T04:30:19;11.60;76.20
81218;DHT22;70689;52.494;13.420;2023-10-09T04:32:44;11.60;76.90
81218;DHT22;70689;52.494;13.420;2023-10-09T04:35:14;11.60;77.30
81218;DHT22;70689;52.494;13.420;2023-10-09T04:37:49;11.80;77.00
81218;DHT22;70689;52.494;13.420;2023-10-09T04:40:32;11.90;76.30
81218;DHT22;70689;52.494;13.420;2023-10-09T04:43:16;11.90;75.20
81218;DHT22;70689;52.494;13.420;2023-10-09T04:45:48;12.00;75.00
81218;DHT22;70689;52.494;13.420;2023-10-09T04:48:33;12.00;74.30
81218;DHT22;70689;52.494;13.420;2023-10-09T04:51:03;12.00;74.60
81218;DHT22;70689;52.494;13.420;2023-10-09T04:53:48;12.00;74.50
81218;DHT22;70689;52.494;13.420;2023-10-09T04:56:34;12.00;74.40
81218;DHT22;70689;52.494;13.420;2023-10-09T04:59:19;12.10;74.30
81218;DHT22;70689;52.494;13.420;2023-10-09T05:01:50;12.00;74.30
81218;DHT22;70689;52.494;13.420;2023-10-09T05:04:23;12.00;74.80
81218;DHT22;70689;52.494;13.420;2023-10-09T05:07:06;11.90;74.30
81218;DHT22;70689;52.494;13.420;2023-10-09T05:09:50;12.00;75.00
81218;DHT22;70689;52.494;13.420;2023-10-09T05:12:32;11.90;75.40
81218;DHT22;70689;52.494;13.420;2023-10-09T05:14:58;12.00;75.10
81218;DHT22;70689;52.494;13.420;2023-10-09T05:17:38;12.00;74.50
81218;DHT22;70689;52.494;13.420;2023-10-09T05:20:06;12.10;74.30
81218;DHT22;70689;52.494;13.420;2023-10-09T05:22:50;12.10;73.80
81218;DHT22;70689;52.494;13.420;2023-10-09T05:25:28;12.00;73.10
81218;DHT22;70689;52.494;13.420;2023-10-09T05:28:17;12.00;73.70
81218;DHT22;70689;52.494;13.420;2023-10-09T05:30:58;12.00;73.90
81218;DHT22;70689;52.494;13.420;2023-10-09T05:33:41;12.10;73.90
81218;DHT22;70689;52.494;13.420;2023-10-09T05:36:10;12.10;72.90
81218;DHT22;70689;52.494;13.420;2023-10-09T05:38:51;12.10;73.20
81218;DHT22;70689;52.494;13.420;2023-10-09T05:41:35;12.00;73.70
81218;DHT22;70689;52.494;13.420;2023-10-09T05:44:18;12.00;73.90
81218;DHT22;70689;52.494;13.420;2023-10-09T05:47:03;12.00;73.90
81218;DHT22;70689;52.494;13.420;2023-10-09T05:49:47;11.90;74.80
81218;DHT22;70689;52.494;13.420;2023-10-09T05:52:23;11.90;75.10
81218;DHT22;70689;52.494;13.420;2023-10-09T05:55:22;11.80;76.20
81218;DHT22;70689;52.494;13.420;2023-10-09T05:57:54;11.80;75.20
81218;DHT22;70689;52.494;13.420;2023-10-09T06:00:23;11.80;75.30
81218;DHT22;70689;52.494;13.420;2023-10-09T06:03:07;11.80;75.60
81218;DHT22;70689;52.494;13.420;2023-10-09T06:05:49;11.90;74.40
81218;DHT22;70689;52.494;13.420;2023-10-09T06:08:22;11.90;74.20
81218;DHT22;70689;52.494;13.420;2023-10-09T06:11:11;11.90;73.60
81218;DHT22;70689;52.494;13.420;2023-10-09T06:14:00;11.90;74.20
81218;DHT22;70689;52.494;13.420;2023-10-09T06:16:30;11.90;74.30
81218;DHT22;70689;52.494;13.420;2023-10-09T06:19:11;11.90;74.00
81218;DHT22;70689;52.494;13.420;2023-10-09T06:21:40;11.90;74.10
81218;DHT22;70689;52.494;13.420;2023-10-09T06:24:07;12.00;74.00
81218;DHT22;70689;52.494;13.420;2023-10-09T06:26:47;12.00;73.80
81218;DHT22;70689;52.494;13.420;2023-10-09T06:29:30;12.00;73.50
81218;DHT22;70689;52.494;13.420;2023-10-09T06:32:17;11.90;74.20
81218;DHT22;70689;52.494;13.420;2023-10-09T06:34:44;12.10;73.30
81218;DHT22;70689;52.494;13.420;2023-10-09T06:37:11;12.30;72.90
81218;DHT22;70689;52.494;13.420;2023-10-09T06:40:00;12.30;71.50
81218;DHT22;70689;52.494;13.420;2023-10-09T06:42:26;12.30;71.60
81218;DHT22;70689;52.494;13.420;2023-10-09T06:47:53;12.40;71.90
81218;DHT22;70689;52.494;13.420;2023-10-09T06:50:22;12.60;70.20
81218;DHT22;70689;52.494;13.420;2023-10-09T06:52:52;12.50;71.00
81218;DHT22;70689;52.494;13.420;2023-10-09T06:55:44;12.40;71.00
81218;DHT22;70689;52.494;13.420;2023-10-09T06:58:20;12.30;71.80
81218;DHT22;70689;52.494;13.420;2023-10-09T07:00:54;12.50;71.10
81218;DHT22;70689;52.494;13.420;2023-10-09T07:03:38;12.60;70.50
81218;DHT22;70689;52.494;13.420;2023-10-09T07:06:19;12.60;71.10
81218;DHT22;70689;52.494;13.420;2023-10-09T07:09:13;12.70;70.50
81218;DHT22;70689;52.494;13.420;2023-10-09T07:11:40;13.00;70.50
81218;DHT22;70689;52.494;13.420;2023-10-09T07:14:19;12.90;69.50
81218;DHT22;70689;52.494;13.420;2023-10-09T07:19:23;12.80;70.00
81218;DHT22;70689;52.494;13.420;2023-10-09T07:22:21;12.80;69.80
81218;DHT22;70689;52.494;13.420;2023-10-09T07:24:47;12.90;69.70
81218;DHT22;70689;52.494;13.420;2023-10-09T07:30:30;12.90;69.50
81218;DHT22;70689;52.494;13.420;2023-10-09T07:35:44;12.90;72.20
81218;DHT22;70689;52.494;13.420;2023-10-09T07:38:27;13.10;70.60
81218;DHT22;70689;52.494;13.420;2023-10-09T07:41:01;13.20;70.10
81218;DHT22;70689;52.494;13.420;2023-10-09T07:43:37;13.30;69.40
81218;DHT22;70689;52.494;13.420;2023-10-09T07:46:10;13.20;68.80
81218;DHT22;70689;52.494;13.420;2023-10-09T07:48:55;13.20;69.40
81218;DHT22;70689;52.494;13.420;2023-10-09T07:51:22;13.30;69.20
81218;DHT22;70689;52.494;13.420;2023-10-09T07:53:52;13.30;69.00
81218;DHT22;70689;52.494;13.420;2023-10-09T07:56:25;13.40;68.30
81218;DHT22;70689;52.494;13.420;2023-10-09T07:58:56;13.40;68.50
81218;DHT22;70689;52.494;13.420;2023-10-09T08:01:26;13.20;69.20
81218;DHT22;70689;52.494;13.420;2023-10-09T08:03:51;13.20;68.90
81218;DHT22;70689;52.494;13.420;2023-10-09T08:06:27;13.30;68.60
81218;DHT22;70689;52.494;13.420;2023-10-09T08:09:09;13.40;68.80
81218;DHT22;70689;52.494;13.420;2023-10-09T08:11:43;13.40;69.10
81218;DHT22;70689;52.494;13.420;2023-10-09T08:14:25;13.30;68.80
81218;DHT22;70689;52.494;13.420;2023-10-09T08:17:11;13.40;67.50
81218;DHT22;70689;52.494;13.420;2023-10-09T08:19:50;13.40;68.20
81218;DHT22;70689;52.494;13.420;2023-10-09T08:22:27;13.30;69.20
81218;DHT22;70689;52.494;13.420;2023-10-09T08:24:56;13.20;69.50
81218;DHT22;70689;52.494;13.420;2023-10-09T08:27:26;13.30;68.60
81218;DHT22;70689;52.494;13.420;2023-10-09T08:32:51;13.20;69.00
81218;DHT22;70689;52.494;13.420;2023-10-09T08:35:32;13.20;68.40
81218;DHT22;70689;52.494;13.420;2023-10-09T08:38:13;13.30;67.80
81218;DHT22;70689;52.494;13.420;2023-10-09T08:40:41;13.30;67.70
81218;DHT22;70689;52.494;13.420;2023-10-09T08:43:21;13.30;67.90
81218;DHT22;70689;52.494;13.420;2023-10-09T08:48:13;13.50;67.50
81218;DHT22;70689;52.494;13.420;2023-10-09T08:50:44;13.50;67.90
81218;DHT22;70689;52.494;13.420;2023-10-09T08:53:13;13.40;67.90
81218;DHT22;70689;52.494;13.420;2023-10-09T08:55:40;13.40;68.40
81218;DHT22;70689;52.494;13.420;2023-10-09T08:58:07;13.50;68.60
81218;DHT22;70689;52.494;13.420;2023-10-09T09:00:43;13.50;67.80
81218;DHT22;70689;52.494;13.420;2023-10-09T09:03:15;13.50;67.80
81218;DHT22;70689;52.494;13.420;2023-10-09T09:05:48;13.50;68.00
81218;DHT22;70689;52.494;13.420;2023-10-09T09:08:28;13.40;68.00
81218;DHT22;70689;52.494;13.420;2023-10-09T09:11:12;13.20;68.00
81218;DHT22;70689;52.494;13.420;2023-10-09T09:14:01;13.30;68.50
81218;DHT22;70689;52.494;13.420;2023-10-09T09:16:44;13.30;68.30
81218;DHT22;70689;52.494;13.420;2023-10-09T09:19:13;13.30;67.90
81218;DHT22;70689;52.494;13.420;2023-10-09T09:21:50;13.50;67.80
81218;DHT22;70689;52.494;13.420;2023-10-09T09:24:20;13.40;67.90
81218;DHT22;70689;52.494;13.420;2023-10-09T09:26:53;13.40;68.10
81218;DHT22;70689;52.494;13.420;2023-10-09T09:32:03;13.70;66.90
81218;DHT22;70689;52.494;13.420;2023-10-09T09:34:50;13.80;66.70
81218;DHT22;70689;52.494;13.420;2023-10-09T09:37:30;13.60;66.20
81218;DHT22;70689;52.494;13.420;2023-10-09T09:40:02;13.70;66.70
81218;DHT22;70689;52.494;13.420;2023-10-09T09:42:43;13.70;65.50
81218;DHT22;70689;52.494;13.420;2023-10-09T09:45:14;13.80;65.40
81218;DHT22;70689;52.494;13.420;2023-10-09T09:47:44;13.90;65.60
81218;DHT22;70689;52.494;13.420;2023-10-09T09:50:17;14.10;64.40
81218;DHT22;70689;52.494;13.420;2023-10-09T09:52:50;14.10;64.40
81218;DHT22;70689;52.494;13.420;2023-10-09T09:55:24;14.00;64.50
81218;DHT22;70689;52.494;13.420;2023-10-09T09:57:56;14.00;64.50
81218;DHT22;70689;52.494;13.420;2023-10-09T10:00:31;13.80;65.30
81218;DHT22;70689;52.494;13.420;2023-10-09T10:03:10;13.70;66.50
81218;DHT22;70689;52.494;13.420;2023-10-09T10:05:39;13.60;65.90
81218;DHT22;70689;52.494;13.420;2023-10-09T10:08:08;13.60;66.00
81218;DHT22;70689;52.494;13.420;2023-10-09T10:10:41;13.60;66.20
81218;DHT22;70689;52.494;13.420;2023-10-09T10:16:11;13.70;66.40
81218;DHT22;70689;52.494;13.420;2023-10-09T10:21:33;13.50;66.90
81218;DHT22;70689;52.494;13.420;2023-10-09T10:24:04;13.50;66.90
81218;DHT22;70689;52.494;13.420;2023-10-09T10:26:35;13.80;65.00
81218;DHT22;70689;52.494;13.420;2023-10-09T10:32:00;13.60;66.50
81218;DHT22;70689;52.494;13.420;2023-10-09T10:35:02;13.80;65.20
81218;DHT22;70689;52.494;13.420;2023-10-09T10:37:38;13.70;65.50
81218;DHT22;70689;52.494;13.420;2023-10-09T10:40:24;13.90;64.60
81218;DHT22;70689;52.494;13.420;2023-10-09T10:43:15;13.90;65.20
81218;DHT22;70689;52.494;13.420;2023-10-09T10:46:03;13.90;65.40
81218;DHT22;70689;52.494;13.420;2023-10-09T10:48:52;14.00;65.50
81218;DHT22;70689;52.494;13.420;2023-10-09T10:51:44;14.20;63.90
81218;DHT22;70689;52.494;13.420;2023-10-09T10:54:25;14.10;64.20
81218;DHT22;70689;52.494;13.420;2023-10-09T10:56:56;14.10;64.30
81218;DHT22;70689;52.494;13.420;2023-10-09T10:59:23;14.10;64.10
81218;DHT22;70689;52.494;13.420;2023-10-09T11:01:52;14.10;64.50
81218;DHT22;70689;52.494;13.420;2023-10-09T11:04:23;14.20;63.90
81218;DHT22;70689;52.494;13.420;2023-10-09T11:07:00;14.30;63.70
81218;DHT22;70689;52.494;13.420;2023-10-09T11:09:47;14.30;63.30
81218;DHT22;70689;52.494;13.420;2023-10-09T11:12:43;14.40;62.40
81218;DHT22;70689;52.494;13.420;2023-10-09T11:15:34;14.30;63.40
81218;DHT22;70689;52.494;13.420;2023-10-09T11:18:10;14.40;63.50
81218;DHT22;70689;52.494;13.420;2023-10-09T11:20:49;14.60;63.30
81218;DHT22;70689;52.494;13.420;2023-10-09T11:23:28;14.70;62.60
81218;DHT22;70689;52.494;13.420;2023-10-09T11:26:01;14.70;60.60
81218;DHT22;70689;52.494;13.420;2023-10-09T11:28:45;14.70;60.40
81218;DHT22;70689;52.494;13.420;2023-10-09T11:31:37;14.90;59.50
81218;DHT22;70689;52.494;13.420;2023-10-09T11:34:03;14.90;59.00
81218;DHT22;70689;52.494;13.420;2023-10-09T11:36:46;14.80;59.90
81218;DHT22;70689;52.494;13.420;2023-10-09T11:39:25;14.80;60.00
81218;DHT22;70689;52.494;13.420;2023-10-09T11:42:06;14.80;60.70
81218;DHT22;70689;52.494;13.420;2023-10-09T11:44:41;14.50;61.90
81218;DHT22;70689;52.494;13.420;2023-10-09T11:47:11;14.70;60.50
81218;DHT22;70689;52.494;13.420;2023-10-09T11:49:53;14.70;59.90
81218;DHT22;70689;52.494;13.420;2023-10-09T11:52:28;14.80;60.20
81218;DHT22;70689;52.494;13.420;2023-10-09T11:54:58;14.70;60.30
81218;DHT22;70689;52.494;13.420;2023-10-09T11:57:25;14.80;60.00
81218;DHT22;70689;52.494;13.420;2023-10-09T11:59:57;14.90;60.00
81218;DHT22;70689;52.494;13.420;2023-10-09T12:02:23;14.80;60.60
81218;DHT22;70689;52.494;13.420;2023-10-09T12:04:49;15.00;59.20
81218;DHT22;70689;52.494;13.420;2023-10-09T12:07:15;15.20;60.40
81218;DHT22;70689;52.494;13.420;2023-10-09T12:09:40;15.10;59.10
81218;DHT22;70689;52.494;13.420;2023-10-09T12:12:07;15.20;59.20
81218;DHT22;70689;52.494;13.420;2023-10-09T12:14:34;15.20;58.20
81218;DHT22;70689;52.494;13.420;2023-10-09T12:17:07;15.20;58.10
81218;DHT22;70689;52.494;13.420;2023-10-09T12:19:34;15.30;57.50
81218;DHT22;70689;52.494;13.420;2023-10-09T12:22:07;15.20;58.10
81218;DHT22;70689;52.494;13.420;2023-10-09T12:24:41;15.30;58.20
81218;DHT22;70689;52.494;13.420;2023-10-09T12:27:09;15.00;59.20
81218;DHT22;70689;52.494;13.420;2023-10-09T12:29:37;14.90;60.00
81218;DHT22;70689;52.494;13.420;2023-10-09T12:32:03;14.90;60.00
81218;DHT22;70689;52.494;13.420;2023-10-09T12:34:30;15.00;59.30
81218;DHT22;70689;52.494;13.420;2023-10-09T12:36:57;14.90;59.20
81218;DHT22;70689;52.494;13.420;2023-10-09T12:39:26;14.80;60.20
81218;DHT22;70689;52.494;13.420;2023-10-09T12:41:59;14.80;60.50
81218;DHT22;70689;52.494;13.420;2023-10-09T12:44:35;14.80;60.60
81218;DHT22;70689;52.494;13.420;2023-10-09T12:47:05;14.80;60.80
81218;DHT22;70689;52.494;13.420;2023-10-09T12:49:31;14.80;60.10
81218;DHT22;70689;52.494;13.420;2023-10-09T12:51:57;14.80;60.60
81218;DHT22;70689;52.494;13.420;2023-10-09T12:54:25;14.80;60.80
81218;DHT22;70689;52.494;13.420;2023-10-09T12:56:55;14.70;60.70
81218;DHT22;70689;52.494;13.420;2023-10-09T12:59:20;14.40;61.90
81218;DHT22;70689;52.494;13.420;2023-10-09T13:01:47;14.40;62.90
81218;DHT22;70689;52.494;13.420;2023-10-09T13:04:18;14.50;62.50
81218;DHT22;70689;52.494;13.420;2023-10-09T13:06:48;14.40;62.40
81218;DHT22;70689;52.494;13.420;2023-10-09T13:09:18;14.40;63.70
81218;DHT22;70689;52.494;13.420;2023-10-09T13:12:06;14.30;64.10
81218;DHT22;70689;52.494;13.420;2023-10-09T13:14:43;14.30;63.00
81218;DHT22;70689;52.494;13.420;2023-10-09T13:17:10;14.30;63.80
81218;DHT22;70689;52.494;13.420;2023-10-09T13:19:36;14.20;62.90
81218;DHT22;70689;52.494;13.420;2023-10-09T13:22:02;14.20;63.60
81218;DHT22;70689;52.494;13.420;2023-10-09T13:24:29;14.20;63.60
81218;DHT22;70689;52.494;13.420;2023-10-09T13:26:56;14.20;63.70
81218;DHT22;70689;52.494;13.420;2023-10-09T13:29:23;14.20;63.50
81218;DHT22;70689;52.494;13.420;2023-10-09T13:31:50;14.20;63.30
81218;DHT22;70689;52.494;13.420;2023-10-09T13:34:18;14.30;63.00
81218;DHT22;70689;52.494;13.420;2023-10-09T13:36:44;14.20;63.10
81218;DHT22;70689;52.494;13.420;2023-10-09T13:39:18;14.20;63.80
81218;DHT22;70689;52.494;13.420;2023-10-09T13:41:51;14.20;63.40
81218;DHT22;70689;52.494;13.420;2023-10-09T13:44:30;14.30;62.90
81218;DHT22;70689;52.494;13.420;2023-10-09T13:46:57;14.20;62.90
81218;DHT22;70689;52.494;13.420;2023-10-09T13:49:23;14.20;63.60
81218;DHT22;70689;52.494;13.420;2023-10-09T13:51:49;14.20;63.90
81218;DHT22;70689;52.494;13.420;2023-10-09T13:54:16;14.20;64.10
81218;DHT22;70689;52.494;13.420;2023-10-09T13:56:54;14.30;63.60
81218;DHT22;70689;52.494;13.420;2023-10-09T13:59:21;14.50;63.00
81218;DHT22;70689;52.494;13.420;2023-10-09T14:01:48;14.30;63.00
81218;DHT22;70689;52.494;13.420;2023-10-09T14:04:14;14.10;63.90
81218;DHT22;70689;52.494;13.420;2023-10-09T14:06:46;14.10;64.20
81218;DHT22;70689;52.494;13.420;2023-10-09T14:09:12;14.00;64.30
81218;DHT22;70689;52.494;13.420;2023-10-09T14:12:00;14.10;64.60
81218;DHT22;70689;52.494;13.420;2023-10-09T14:14:43;14.10;64.10
81218;DHT22;70689;52.494;13.420;2023-10-09T14:17:16;14.30;62.80
81218;DHT22;70689;52.494;13.420;2023-10-09T14:19:49;14.20;64.00
81218;DHT22;70689;52.494;13.420;2023-10-09T14:22:25;14.10;63.50
81218;DHT22;70689;52.494;13.420;2023-10-09T14:24:53;14.20;63.50
81218;DHT22;70689;52.494;13.420;2023-10-09T14:27:23;14.30;63.20
81218;DHT22;70689;52.494;13.420;2023-10-09T14:29:53;14.10;63.20
81218;DHT22;70689;52.494;13.420;2023-10-09T14:32:25;14.10;63.60
81218;DHT22;70689;52.494;13.420;2023-10-09T14:35:03;14.10;63.90
81218;DHT22;70689;52.494;13.420;2023-10-09T14:37:38;14.10;63.80
81218;DHT22;70689;52.494;13.420;2023-10-09T14:40:06;14.10;63.70
81218;DHT22;70689;52.494;13.420;2023-10-09T14:42:40;14.20;63.90
81218;DHT22;70689;52.494;13.420;2023-10-09T14:45:10;14.30;63.60
81218;DHT22;70689;52.494;13.420;2023-10-09T14:47:43;14.40;62.70
81218;DHT22;70689;52.494;13.420;2023-10-09T14:50:12;14.40;62.50
81218;DHT22;70689;52.494;13.420;2023-10-09T14:52:39;14.30;63.00
81218;DHT22;70689;52.494;13.420;2023-10-09T14:55:05;14.30;63.00
81218;DHT22;70689;52.494;13.420;2023-10-09T14:57:31;14.30;63.00
81218;DHT22;70689;52.494;13.420;2023-10-09T14:59:59;14.30;63.40
81218;DHT22;70689;52.494;13.420;2023-10-09T15:02:25;14.30;63.40
81218;DHT22;70689;52.494;13.420;2023-10-09T15:04:51;14.20;64.10
81218;DHT22;70689;52.494;13.420;2023-10-09T15:07:18;14.30;64.20
81218;DHT22;70689;52.494;13.420;2023-10-09T15:09:44;14.20;64.20
81218;DHT22;70689;52.494;13.420;2023-10-09T15:12:10;14.40;63.70
81218;DHT22;70689;52.494;13.420;2023-10-09T15:14:37;14.30;64.30
81218;DHT22;70689;52.494;13.420;2023-10-09T15:17:04;14.30;65.50
81218;DHT22;70689;52.494;13.420;2023-10-09T15:19:32;14.30;64.80
81218;DHT22;70689;52.494;13.420;2023-10-09T15:21:58;14.40;64.80
81218;DHT22;70689;52.494;13.420;2023-10-09T15:24:25;14.40;64.50
81218;DHT22;70689;52.494;13.420;2023-10-09T15:26:53;14.40;63.70
81218;DHT22;70689;52.494;13.420;2023-10-09T15:29:26;14.20;64.30
81218;DHT22;70689;52.494;13.420;2023-10-09T15:31:59;14.20;64.70
81218;DHT22;70689;52.494;13.420;2023-10-09T15:34:33;14.20;65.00
81218;DHT22;70689;52.494;13.420;2023-10-09T15:37:02;14.20;64.50
81218;DHT22;70689;52.494;13.420;2023-10-09T15:39:29;14.30;64.80
81218;DHT22;70689;52.494;13.420;2023-10-09T15:41:57;14.20;65.20
81218;DHT22;70689;52.494;13.420;2023-10-09T15:44:22;14.20;65.50
81218;DHT22;70689;52.494;13.420;2023-10-09T15:46:51;14.20;64.60
81218;DHT22;70689;52.494;13.420;2023-10-09T15:49:18;14.20;64.90
81218;DHT22;70689;52.494;13.420;2023-10-09T15:51:44;14.10;65.40
81218;DHT22;70689;52.494;13.420;2023-10-09T15:54:12;14.20;64.50
81218;DHT22;70689;52.494;13.420;2023-10-09T15:56:41;14.20;64.50
81218;DHT22;70689;52.494;13.420;2023-10-09T15:59:07;14.10;65.30
81218;DHT22;70689;52.494;13.420;2023-10-09T16:01:33;14.20;64.80
81218;DHT22;70689;52.494;13.420;2023-10-09T16:04:01;14.10;65.50
81218;DHT22;70689;52.494;13.420;2023-10-09T16:06:26;14.00;65.70
81218;DHT22;70689;52.494;13.420;2023-10-09T16:08:56;14.00;66.00
81218;DHT22;70689;52.494;13.420;2023-10-09T16:11:22;14.10;65.50
81218;DHT22;70689;52.494;13.420;2023-10-09T16:13:49;14.20;65.30
81218;DHT22;70689;52.494;13.420;2023-10-09T16:16:23;14.20;65.10
81218;DHT22;70689;52.494;13.420;2023-10-09T16:18:49;14.20;65.30
81218;DHT22;70689;52.494;13.420;2023-10-09T16:21:16;14.20;64.40
81218;DHT22;70689;52.494;13.420;2023-10-09T16:23:42;14.20;64.90